WN1234 / N8747Q 7700 Squawk Report (15th of August, 2022)

Time Lat Lon Altitude Heading Speed Vertical Rate
2022-08-15 14:01:07 GMT 35.048355 -106.613853 0 267 10 0
2022-08-15 14:01:01 GMT 35.048355 -106.613472 0 286 10 0
2022-08-15 14:00:56 GMT 35.048275 -106.613235 0 323 10 0
2022-08-15 14:00:43 GMT 35.047726 -106.613091 0 0 12 0
2022-08-15 14:00:39 GMT 35.047470 -106.613091 0 2 12 0
2022-08-15 14:00:29 GMT 35.046993 -106.613106 0 2 12 0
2022-08-15 14:00:25 GMT 35.046818 -106.613113 0 5 11 0
2022-08-15 14:00:18 GMT 35.046455 -106.613159 0 5 11 0
2022-08-15 14:00:14 GMT 35.046261 -106.613190 0 351 11 0
2022-08-15 14:00:06 GMT 35.045887 -106.612961 0 292 11 0
2022-08-15 13:59:55 GMT 35.045815 -106.612343 0 272 12 0
2022-08-15 13:59:45 GMT 35.045803 -106.611694 0 270 12 0
2022-08-15 13:59:36 GMT 35.045792 -106.611145 0 270 12 0
2022-08-15 13:59:30 GMT 35.045792 -106.610786 0 270 12 0
2022-08-15 13:59:24 GMT 35.045807 -106.610344 0 270 13 0
2022-08-15 13:59:10 GMT 35.045792 -106.609390 0 270 12 0
2022-08-15 13:59:05 GMT 35.045792 -106.608994 0 270 13 0
2022-08-15 13:58:52 GMT 35.045780 -106.608063 0 270 15 0
2022-08-15 13:58:35 GMT 35.045780 -106.606606 0 270 16 0
2022-08-15 13:58:15 GMT 35.045769 -106.604897 0 270 16 0
2022-08-15 13:58:02 GMT 35.045757 -106.603676 0 270 16 0
2022-08-15 13:58:00 GMT 35.045757 -106.603546 0 270 16 0
2022-08-15 13:57:51 GMT 35.045757 -106.602707 0 270 16 0
2022-08-15 13:57:39 GMT 35.045746 -106.601784 0 270 16 0
2022-08-15 13:57:29 GMT 35.045746 -106.600845 0 270 16 0
2022-08-15 13:57:15 GMT 35.045734 -106.599724 0 264 16 0
2022-08-15 13:57:08 GMT 35.045803 -106.599037 0 264 17 0
2022-08-15 13:56:56 GMT 35.045860 -106.597900 0 270 18 0
2022-08-15 13:56:46 GMT 35.045860 -106.596825 0 270 18 0
2022-08-15 13:56:36 GMT 35.045853 -106.595879 0 270 18 0
2022-08-15 13:56:25 GMT 35.045841 -106.594749 0 270 16 0
2022-08-15 13:56:09 GMT 35.045837 -106.593529 0 270 15 0
2022-08-15 13:56:03 GMT 35.045826 -106.593002 0 270 14 0
2022-08-15 13:55:50 GMT 35.045830 -106.592049 0 272 13 0
2022-08-15 13:55:34 GMT 35.045815 -106.591026 0 270 12 0
2022-08-15 13:55:27 GMT 35.045815 -106.590530 0 270 11 0
2022-08-15 13:55:21 GMT 35.045815 -106.590126 0 270 10 0
2022-08-15 13:55:10 GMT 35.045815 -106.589638 0 272 8 0
2022-08-15 13:54:47 GMT 35.045803 -106.589256 0 270 0 0
2022-08-15 13:54:12 GMT 35.045807 -106.589256 0 270 0 0
2022-08-15 13:54:03 GMT 35.045803 -106.589256 0 270 0 0
2022-08-15 13:53:32 GMT 35.045807 -106.589256 0 270 0 0
2022-08-15 13:53:08 GMT 35.045803 -106.589256 0 270 0 0
2022-08-15 13:52:47 GMT 35.045807 -106.589256 0 270 0 0
2022-08-15 13:52:38 GMT 35.045803 -106.589256 0 270 0 0
2022-08-15 13:52:28 GMT 35.045807 -106.589256 0 270 0 0
2022-08-15 13:52:17 GMT 35.045803 -106.589256 0 270 0 0
2022-08-15 13:52:03 GMT 35.045807 -106.589256 0 270 0 0
2022-08-15 13:51:34 GMT 35.045803 -106.589256 0 270 0 0
2022-08-15 13:51:13 GMT 35.045807 -106.589256 0 270 0 0
2022-08-15 13:50:04 GMT 35.045803 -106.589256 0 270 0 0
2022-08-15 13:49:43 GMT 35.045807 -106.589256 0 270 0 0
2022-08-15 13:49:28 GMT 35.045803 -106.589256 0 270 0 0
2022-08-15 13:48:57 GMT 35.045807 -106.589256 0 270 0 0
2022-08-15 13:48:49 GMT 35.045803 -106.589256 0 270 0 0
2022-08-15 13:48:39 GMT 35.045807 -106.589256 0 270 0 0
2022-08-15 13:48:27 GMT 35.045803 -106.589256 0 270 0 0
2022-08-15 13:48:14 GMT 35.045807 -106.589256 0 270 0 0
2022-08-15 13:48:03 GMT 35.045803 -106.589256 0 270 0 0
2022-08-15 13:47:43 GMT 35.045807 -106.589256 0 270 0 0
2022-08-15 13:47:13 GMT 35.045803 -106.589256 0 270 0 0
2022-08-15 13:47:04 GMT 35.045807 -106.589256 0 270 0 0
2022-08-15 13:46:39 GMT 35.045803 -106.589256 0 270 0 0
2022-08-15 13:46:28 GMT 35.045807 -106.589256 0 270 0 0
2022-08-15 13:45:58 GMT 35.045803 -106.589256 0 270 0 0
2022-08-15 13:45:50 GMT 35.045807 -106.589256 0 270 0 0
2022-08-15 13:45:25 GMT 35.045803 -106.589256 0 270 0 0
2022-08-15 13:45:09 GMT 35.045807 -106.589256 0 270 0 0
2022-08-15 13:45:04 GMT 35.045803 -106.589256 0 270 0 0
2022-08-15 13:44:53 GMT 35.045807 -106.589256 0 270 0 0
2022-08-15 13:44:44 GMT 35.045803 -106.589256 0 270 0 0
2022-08-15 13:44:18 GMT 35.045807 -106.589256 0 270 0 0
2022-08-15 13:44:14 GMT 35.045803 -106.589256 0 270 0 0
2022-08-15 13:43:58 GMT 35.045807 -106.589256 0 270 0 0
2022-08-15 13:43:38 GMT 35.045803 -106.589256 0 270 0 0
2022-08-15 13:43:08 GMT 35.045807 -106.589256 0 270 0 0
2022-08-15 13:42:59 GMT 35.045803 -106.589256 0 270 0 0
2022-08-15 13:42:24 GMT 35.045807 -106.589256 0 270 0 0
2022-08-15 13:42:13 GMT 35.045803 -106.589256 0 270 0 0
2022-08-15 13:42:04 GMT 35.045807 -106.589256 0 270 0 0
2022-08-15 13:41:44 GMT 35.045803 -106.589256 0 270 0 0
2022-08-15 13:41:33 GMT 35.045807 -106.589256 0 270 0 0
2022-08-15 13:41:23 GMT 35.045803 -106.589256 0 270 0 0
2022-08-15 13:41:03 GMT 35.045807 -106.589256 0 270 0 0
2022-08-15 13:40:54 GMT 35.045803 -106.589256 0 270 0 0
2022-08-15 13:40:38 GMT 35.045807 -106.589256 0 270 0 0
2022-08-15 13:40:24 GMT 35.045803 -106.589256 0 270 0 0
2022-08-15 13:40:09 GMT 35.045807 -106.589256 0 270 0 0
2022-08-15 13:39:08 GMT 35.045803 -106.589256 0 270 0 0
2022-08-15 13:38:54 GMT 35.045807 -106.589256 0 270 0 0
2022-08-15 13:38:34 GMT 35.045803 -106.589256 0 270 0 0
2022-08-15 13:38:23 GMT 35.045792 -106.589256 0 270 0 0
2022-08-15 13:38:03 GMT 35.045803 -106.589256 0 270 0 0
2022-08-15 13:37:53 GMT 35.045807 -106.589256 0 270 0 0
2022-08-15 13:37:28 GMT 35.045803 -106.589256 0 270 0 0
2022-08-15 13:36:59 GMT 35.045807 -106.589256 0 270 0 0
2022-08-15 13:36:49 GMT 35.045792 -106.589256 0 270 0 0
2022-08-15 13:36:28 GMT 35.045803 -106.589256 0 270 0 0
2022-08-15 13:36:19 GMT 35.045803 -106.589241 0 270 0 0
2022-08-15 13:36:08 GMT 35.045807 -106.589256 0 270 0 0
2022-08-15 13:35:53 GMT 35.045803 -106.589241 0 270 0 0
2022-08-15 13:35:44 GMT 35.045807 -106.589256 0 270 0 0
2022-08-15 13:35:13 GMT 35.045803 -106.589256 0 270 0 0
2022-08-15 13:34:54 GMT 35.045807 -106.589256 0 270 0 0
2022-08-15 13:34:44 GMT 35.045803 -106.589241 0 270 0 0
2022-08-15 13:34:30 GMT 35.045807 -106.589256 0 270 0 0
2022-08-15 13:34:18 GMT 35.045803 -106.589241 0 270 0 0
2022-08-15 13:34:09 GMT 35.045807 -106.589256 0 270 0 0
2022-08-15 13:33:58 GMT 35.045803 -106.589241 0 270 0 0
2022-08-15 13:33:48 GMT 35.045807 -106.589256 0 270 0 0
2022-08-15 13:33:39 GMT 35.045807 -106.589241 0 270 0 0
2022-08-15 13:32:44 GMT 35.045803 -106.589241 0 270 0 0
2022-08-15 13:32:35 GMT 35.045807 -106.589241 0 270 0 0
2022-08-15 13:32:25 GMT 35.045803 -106.589241 0 270 0 0
2022-08-15 13:31:35 GMT 35.045807 -106.589256 0 270 0 0
2022-08-15 13:31:29 GMT 35.045803 -106.589241 0 270 0 0
2022-08-15 13:31:15 GMT 35.045807 -106.589256 0 270 0 0
2022-08-15 13:31:10 GMT 35.045803 -106.589256 0 270 0 0
2022-08-15 13:30:59 GMT 35.045807 -106.589256 0 270 0 0
2022-08-15 13:30:52 GMT 35.045803 -106.589256 0 270 0 0
2022-08-15 13:30:40 GMT 35.045807 -106.589256 0 270 0 0
2022-08-15 13:30:31 GMT 35.045807 -106.589172 5,100 270 7 0
2022-08-15 13:30:23 GMT 35.046761 -106.585632 5,100 15 81 0
2022-08-15 13:30:10 GMT 35.045200 -106.588127 0 0 15 0
2022-08-15 13:30:02 GMT 35.044617 -106.588196 0 22 18 0
2022-08-15 13:29:59 GMT 35.044350 -106.588387 0 45 18 0
2022-08-15 13:29:47 GMT 35.044155 -106.590057 0 92 55 0
2022-08-15 13:29:38 GMT 35.044189 -106.594330 5,050 90 98 0
2022-08-15 13:29:24 GMT 35.044235 -106.603310 5,050 90 140 -64
2022-08-15 13:29:14 GMT 35.044281 -106.612450 5,050 89 174 -64
2022-08-15 13:29:10 GMT 35.044281 -106.617607 5,125 90 177 -640
2022-08-15 13:29:03 GMT 35.044338 -106.624542 5,225 90 176 -704
2022-08-15 13:28:59 GMT 35.044384 -106.627121 5,250 90 176 -896
2022-08-15 13:28:55 GMT 35.044418 -106.631622 5,325 90 175 -768
2022-08-15 13:28:48 GMT 35.044418 -106.637505 5,400 90 174 -832
2022-08-15 13:28:45 GMT 35.044464 -106.642441 5,475 90 174 -832
2022-08-15 13:28:39 GMT 35.044510 -106.647705 5,550 90 174 -960
2022-08-15 13:28:28 GMT 35.044556 -106.657852 5,725 89 172 -896
2022-08-15 13:28:24 GMT 35.044510 -106.662842 5,800 89 172 -832
2022-08-15 13:28:18 GMT 35.044479 -106.667809 5,850 90 173 -832
2022-08-15 13:28:13 GMT 35.044525 -106.673355 5,950 90 173 -768
2022-08-15 13:28:07 GMT 35.044556 -106.678368 6,025 91 172 -896
2022-08-15 13:28:01 GMT 35.044712 -106.684341 6,100 91 171 -832
2022-08-15 13:27:57 GMT 35.044785 -106.688118 6,150 90 171 -768
2022-08-15 13:27:51 GMT 35.044785 -106.694115 6,225 90 171 -768
2022-08-15 13:27:47 GMT 35.044758 -106.698189 6,275 89 172 -704
2022-08-15 13:27:40 GMT 35.044693 -106.704933 6,375 88 173 -960
2022-08-15 13:27:35 GMT 35.044647 -106.709030 6,450 90 173 -1152
2022-08-15 13:27:26 GMT 35.044693 -106.718781 6,625 89 172 -768
2022-08-15 13:27:20 GMT 35.044617 -106.724792 6,700 89 173 -768
2022-08-15 13:27:15 GMT 35.044617 -106.728745 6,750 89 173 -704
2022-08-15 13:27:07 GMT 35.044556 -106.735992 6,850 89 175 -832
2022-08-15 13:27:04 GMT 35.044525 -106.738815 6,900 89 175 -896
2022-08-15 13:26:57 GMT 35.044510 -106.746803 7,025 90 176 -960
2022-08-15 13:26:52 GMT 35.044571 -106.752151 7,100 90 176 -960
2022-08-15 13:26:48 GMT 35.044693 -106.755890 7,150 92 176 -832
2022-08-15 13:26:44 GMT 35.044804 -106.759415 7,200 92 177 -768
2022-08-15 13:26:34 GMT 35.045315 -106.770287 7,350 93 180 -640
2022-08-15 13:26:26 GMT 35.045921 -106.778702 7,475 96 183 -1088
2022-08-15 13:26:22 GMT 35.046154 -106.781448 7,525 96 183 -1088
2022-08-15 13:26:16 GMT 35.046753 -106.788177 7,625 94 184 -960
2022-08-15 13:26:12 GMT 35.046993 -106.791969 7,675 93 186 -1152
2022-08-15 13:26:06 GMT 35.047256 -106.799667 7,825 91 188 -1344
2022-08-15 13:26:03 GMT 35.047272 -106.802216 7,900 90 189 -1536
2022-08-15 13:25:54 GMT 35.047226 -106.810799 8,100 88 191 -1536
2022-08-15 13:25:51 GMT 35.047131 -106.813774 8,150 87 192 -1600
2022-08-15 13:25:42 GMT 35.046387 -106.824928 8,450 82 191 -1664
2022-08-15 13:25:34 GMT 35.045223 -106.832947 8,625 76 191 -1280
2022-08-15 13:25:31 GMT 35.044739 -106.835426 8,675 74 190 -1152
2022-08-15 13:25:22 GMT 35.042130 -106.844902 8,750 70 189 -64
2022-08-15 13:25:18 GMT 35.041031 -106.848938 8,750 71 190 -128
2022-08-15 13:25:13 GMT 35.039612 -106.854988 8,775 75 189 -64
2022-08-15 13:25:09 GMT 35.038742 -106.859192 8,775 76 190 128
2022-08-15 13:24:59 GMT 35.037140 -106.868942 8,775 80 192 0
2022-08-15 13:24:52 GMT 35.036270 -106.877411 8,775 84 193 0
2022-08-15 13:24:49 GMT 35.036053 -106.880836 8,775 86 195 64
2022-08-15 13:24:41 GMT 35.035675 -106.889290 8,775 88 196 0
2022-08-15 13:24:38 GMT 35.035629 -106.891815 8,775 89 197 128
2022-08-15 13:24:28 GMT 35.035721 -106.902298 8,775 91 200 -64
2022-08-15 13:24:19 GMT 35.036098 -106.913734 8,775 92 202 128
2022-08-15 13:24:07 GMT 35.036407 -106.926567 8,775 91 206 -128
2022-08-15 13:23:58 GMT 35.036655 -106.938110 8,775 91 212 64
2022-08-15 13:23:47 GMT 35.036911 -106.950562 8,800 91 218 -256
2022-08-15 13:23:36 GMT 35.037094 -106.963394 8,800 90 225 -128
2022-08-15 13:23:27 GMT 35.037262 -106.976562 8,825 91 227 -192
2022-08-15 13:23:16 GMT 35.037586 -106.989960 8,800 93 228 256
2022-08-15 13:23:06 GMT 35.038147 -107.003288 8,775 91 231 64
2022-08-15 13:22:55 GMT 35.037323 -107.017372 8,800 73 231 128
2022-08-15 13:22:45 GMT 35.031910 -107.029724 8,775 48 235 64
2022-08-15 13:22:34 GMT 35.022877 -107.038017 8,775 24 241 0
2022-08-15 13:22:24 GMT 35.010910 -107.042374 8,775 10 247 -64
2022-08-15 13:22:12 GMT 34.998901 -107.045006 8,775 10 252 -64
2022-08-15 13:22:00 GMT 34.983627 -107.048485 8,800 11 259 0
2022-08-15 13:21:51 GMT 34.974518 -107.050613 8,775 11 261 64
2022-08-15 13:21:43 GMT 34.963898 -107.053139 8,775 10 262 64
2022-08-15 13:21:31 GMT 34.948673 -107.056732 8,775 10 262 0
2022-08-15 13:21:20 GMT 34.936802 -107.059540 8,775 10 262 0
2022-08-15 13:21:10 GMT 34.924210 -107.062271 8,775 7 262 0
2022-08-15 13:20:58 GMT 34.911198 -107.063026 8,775 354 262 0
2022-08-15 13:20:49 GMT 34.898865 -107.059364 8,775 338 262 0
2022-08-15 13:20:39 GMT 34.890018 -107.053528 8,775 326 262 0
2022-08-15 13:20:36 GMT 34.886307 -107.049942 8,775 318 262 0
2022-08-15 13:20:28 GMT 34.879028 -107.039848 8,775 303 261 0
2022-08-15 13:20:17 GMT 34.873493 -107.025780 8,775 288 262 0
2022-08-15 13:20:06 GMT 34.871445 -107.011185 8,775 273 262 0
2022-08-15 13:19:56 GMT 34.871117 -106.995445 8,775 271 262 0
2022-08-15 13:19:48 GMT 34.870972 -106.984528 8,775 271 262 0
2022-08-15 13:19:45 GMT 34.870926 -106.980103 8,775 271 262 0
2022-08-15 13:19:35 GMT 34.870697 -106.964401 8,775 272 262 0
2022-08-15 13:19:27 GMT 34.870468 -106.953751 8,775 272 261 0
2022-08-15 13:19:24 GMT 34.870373 -106.948647 8,775 272 261 0
2022-08-15 13:19:14 GMT 34.870056 -106.933014 8,775 272 260 0
2022-08-15 13:19:07 GMT 34.869873 -106.922867 8,775 272 259 0
2022-08-15 13:19:02 GMT 34.869781 -106.917542 8,775 272 258 0
2022-08-15 13:18:53 GMT 34.869534 -106.902519 8,775 272 257 0
2022-08-15 13:18:46 GMT 34.869396 -106.893250 8,775 272 256 0
2022-08-15 13:18:41 GMT 34.869301 -106.887192 8,775 271 256 64
2022-08-15 13:18:35 GMT 34.869232 -106.878197 8,775 269 255 0
2022-08-15 13:18:25 GMT 34.870232 -106.863556 8,775 257 254 0
2022-08-15 13:18:21 GMT 34.871677 -106.857262 8,775 251 254 0
2022-08-15 13:18:15 GMT 34.874657 -106.849251 8,775 241 254 0
2022-08-15 13:18:10 GMT 34.877403 -106.844048 8,775 233 254 0
2022-08-15 13:18:03 GMT 34.882187 -106.837334 8,775 225 256 64
2022-08-15 13:18:00 GMT 34.886398 -106.832680 8,775 221 256 0
2022-08-15 13:17:54 GMT 34.891273 -106.827682 8,775 220 257 0
2022-08-15 13:17:49 GMT 34.895645 -106.823318 8,775 220 257 0
2022-08-15 13:17:43 GMT 34.900909 -106.817993 8,775 220 257 0
2022-08-15 13:17:39 GMT 34.905258 -106.813622 8,775 220 257 64
2022-08-15 13:17:32 GMT 34.910408 -106.808456 8,775 220 258 0
2022-08-15 13:17:27 GMT 34.915466 -106.803421 8,775 220 259 0
2022-08-15 13:17:23 GMT 34.919861 -106.799103 8,775 220 260 64
2022-08-15 13:17:12 GMT 34.929771 -106.789345 8,775 219 262 0
2022-08-15 13:17:05 GMT 34.937176 -106.782249 8,775 218 263 0
2022-08-15 13:17:02 GMT 34.939911 -106.779655 8,775 218 264 -64
2022-08-15 13:16:55 GMT 34.946392 -106.773544 8,775 219 265 -64
2022-08-15 13:16:51 GMT 34.949844 -106.770294 8,800 219 265 -64
2022-08-15 13:16:46 GMT 34.955891 -106.764565 8,800 218 266 0
2022-08-15 13:16:41 GMT 34.959938 -106.760963 8,800 215 267 -64
2022-08-15 13:16:34 GMT 34.966690 -106.755608 8,800 210 267 -192
2022-08-15 13:16:31 GMT 34.970970 -106.752892 8,800 206 267 -192
2022-08-15 13:16:25 GMT 34.978561 -106.749062 8,825 199 264 -320
2022-08-15 13:16:19 GMT 34.983353 -106.747368 8,850 194 260 -320
2022-08-15 13:16:13 GMT 34.990906 -106.745857 8,850 185 256 320
2022-08-15 13:16:10 GMT 34.995739 -106.745628 8,800 177 255 704
2022-08-15 13:16:04 GMT 35.002899 -106.746635 8,700 168 256 1024
2022-08-15 13:15:59 GMT 35.007378 -106.748085 8,625 159 256 896
2022-08-15 13:15:52 GMT 35.015259 -106.752472 8,500 147 257 1088
2022-08-15 13:15:48 GMT 35.018509 -106.755157 8,450 142 258 1088
2022-08-15 13:15:43 GMT 35.024597 -106.761772 8,325 131 257 1024
2022-08-15 13:15:39 GMT 35.027348 -106.765709 8,275 125 257 1024
2022-08-15 13:15:31 GMT 35.032425 -106.775955 8,150 116 256 832
2022-08-15 13:15:28 GMT 35.033386 -106.778587 8,125 110 256 576
2022-08-15 13:15:20 GMT 35.035912 -106.788773 8,050 101 253 896
2022-08-15 13:15:17 GMT 35.036636 -106.794449 7,975 95 253 960
2022-08-15 13:15:11 GMT 35.036888 -106.804047 7,875 85 251 576
2022-08-15 13:15:06 GMT 35.036545 -106.808525 7,850 83 250 384
2022-08-15 13:14:59 GMT 35.034843 -106.818466 7,800 73 247 704
2022-08-15 13:14:56 GMT 35.033817 -106.822189 7,750 70 246 768
2022-08-15 13:14:50 GMT 35.030640 -106.831726 7,650 66 246 1024
2022-08-15 13:14:42 GMT 35.026978 -106.841820 7,525 66 247 768
2022-08-15 13:14:38 GMT 35.025623 -106.845650 7,500 66 246 640
2022-08-15 13:14:34 GMT 35.023773 -106.850784 7,450 66 245 768
2022-08-15 13:14:29 GMT 35.021072 -106.858910 7,375 69 246 768
2022-08-15 13:14:26 GMT 35.020065 -106.862167 7,350 69 246 512
2022-08-15 13:14:17 GMT 35.016918 -106.872421 7,300 68 245 320
2022-08-15 13:14:14 GMT 35.015617 -106.876312 7,275 66 245 192
2022-08-15 13:14:08 GMT 35.011890 -106.886047 7,275 63 243 0
2022-08-15 13:14:04 GMT 35.010864 -106.888618 7,275 63 243 0
2022-08-15 13:13:57 GMT 35.006538 -106.898865 7,250 62 245 0
2022-08-15 13:13:53 GMT 35.004684 -106.903252 7,250 62 247 64
2022-08-15 13:13:46 GMT 35.001022 -106.911880 7,250 62 249 64
2022-08-15 13:13:43 GMT 34.999603 -106.915131 7,250 61 250 64
2022-08-15 13:13:36 GMT 34.995228 -106.925011 7,250 61 253 -64
2022-08-15 13:13:27 GMT 34.989853 -106.936546 7,300 60 257 -320
2022-08-15 13:13:23 GMT 34.988022 -106.940353 7,325 59 258 -1024
2022-08-15 13:13:11 GMT 34.980698 -106.955383 7,525 58 261 -1024
2022-08-15 13:13:04 GMT 34.975861 -106.965065 7,675 58 264 -1088
2022-08-15 13:12:53 GMT 34.968971 -106.978973 7,850 59 267 -1024
2022-08-15 13:12:42 GMT 34.961792 -106.993889 7,950 60 272 0
2022-08-15 13:12:31 GMT 34.955425 -107.007408 7,950 59 277 64
2022-08-15 13:12:20 GMT 34.948441 -107.021889 7,950 59 283 64
2022-08-15 13:12:10 GMT 34.941643 -107.035728 8,025 58 292 -960
2022-08-15 13:12:00 GMT 34.934418 -107.050331 8,100 58 294 -1216
2022-08-15 13:11:50 GMT 34.926819 -107.065636 8,325 58 296 -1280
2022-08-15 13:11:39 GMT 34.919579 -107.080254 8,550 59 299 -1280
2022-08-15 13:11:29 GMT 34.911484 -107.096687 8,775 59 302 -1280
2022-08-15 13:11:18 GMT 34.904171 -107.111664 9,000 59 305 -1280
2022-08-15 13:11:08 GMT 34.896606 -107.127350 9,225 60 306 -1216
2022-08-15 13:10:57 GMT 34.889191 -107.143044 9,425 60 305 -1216
2022-08-15 13:10:47 GMT 34.882568 -107.157097 9,675 60 302 -1024
2022-08-15 13:10:32 GMT 34.871723 -107.177811 9,775 52 301 -256
2022-08-15 13:10:26 GMT 34.864971 -107.187943 9,750 50 304 64
2022-08-15 13:10:15 GMT 34.854858 -107.202850 9,750 50 307 64
2022-08-15 13:10:06 GMT 34.847214 -107.213951 9,750 49 314 0
2022-08-15 13:10:03 GMT 34.845234 -107.216721 9,750 49 312 64
2022-08-15 13:09:54 GMT 34.835552 -107.230225 9,775 49 321 -512
2022-08-15 13:09:43 GMT 34.825264 -107.244591 9,950 48 325 -1088
2022-08-15 13:09:33 GMT 34.814602 -107.259293 10,150 48 328 -1152
2022-08-15 13:09:21 GMT 34.803104 -107.275200 10,350 48 333 -1088
2022-08-15 13:09:00 GMT 34.781433 -107.306160 10,525 53 338 -768
2022-08-15 13:08:57 GMT 34.779083 -107.310104 10,750 53 338 -768
2022-08-15 13:08:50 GMT 34.772919 -107.322578 10,750 62 346 64
2022-08-15 13:08:40 GMT 34.766144 -107.340240 10,750 65 354 0
2022-08-15 13:08:27 GMT 34.757492 -107.363609 10,825 65 364 -704
2022-08-15 13:08:21 GMT 34.753342 -107.374763 10,950 65 367 -1536
2022-08-15 13:08:10 GMT 34.745956 -107.394722 11,225 65 369 -1536
2022-08-15 13:07:54 GMT 34.734833 -107.424652 11,625 65 373 -1536
2022-08-15 13:07:51 GMT 34.731926 -107.432442 11,725 65 374 -1536
2022-08-15 13:07:45 GMT 34.728012 -107.442757 11,875 65 378 -1536
2022-08-15 13:07:37 GMT 34.721592 -107.459740 12,100 65 378 -1536
2022-08-15 13:07:30 GMT 34.716751 -107.472412 12,275 65 381 -1536
2022-08-15 13:07:25 GMT 34.713306 -107.481422 12,400 65 382 -1536
2022-08-15 13:07:15 GMT 34.705856 -107.500710 12,650 64 385 -1536
2022-08-15 13:07:08 GMT 34.700874 -107.513580 12,800 64 387 -1536
2022-08-15 13:07:05 GMT 34.697525 -107.522240 12,925 65 389 -1536
2022-08-15 13:06:46 GMT 34.683514 -107.559074 13,400 65 394 -1536
2022-08-15 13:06:28 GMT 34.670517 -107.593033 13,825 65 395 -1536
2022-08-15 13:06:19 GMT 34.662052 -107.614861 14,125 64 397 -1536
2022-08-15 13:05:55 GMT 34.643711 -107.662292 14,700 64 403 -1472
2022-08-15 13:05:49 GMT 34.639751 -107.672539 14,825 64 403 -1472
2022-08-15 13:05:43 GMT 34.634541 -107.686043 15,000 65 404 -1472
2022-08-15 13:05:39 GMT 34.631374 -107.694221 15,100 65 404 -1472
2022-08-15 13:05:28 GMT 34.621830 -107.719116 15,400 65 406 -1472
2022-08-15 13:05:23 GMT 34.619179 -107.726097 15,475 65 406 -1472
2022-08-15 13:05:15 GMT 34.611923 -107.745277 15,700 65 407 -1536
2022-08-15 13:05:07 GMT 34.605240 -107.762711 15,925 65 406 -1472
2022-08-15 13:04:56 GMT 34.597855 -107.781998 16,150 65 407 -1472
2022-08-15 13:04:47 GMT 34.589539 -107.803627 16,400 65 407 -1472
2022-08-15 13:04:41 GMT 34.585983 -107.812843 16,500 65 407 -1472
2022-08-15 13:04:35 GMT 34.581238 -107.825203 16,650 65 407 -1472
2022-08-15 13:04:26 GMT 34.572948 -107.846832 16,925 65 407 -1472
2022-08-15 13:04:19 GMT 34.567642 -107.860794 17,075 64 408 -1536
2022-08-15 13:04:15 GMT 34.564453 -107.869209 17,175 65 407 -1408
2022-08-15 13:04:09 GMT 34.560013 -107.880814 17,325 64 408 -1536
2022-08-15 13:04:05 GMT 34.556053 -107.891174 17,450 64 408 -1472
2022-08-15 13:03:53 GMT 34.547470 -107.913261 17,700 64 408 -1472
2022-08-15 13:03:46 GMT 34.542023 -107.927223 17,875 64 408 -1536
2022-08-15 13:03:42 GMT 34.538876 -107.935410 17,975 64 408 -1472
2022-08-15 13:03:39 GMT 34.536407 -107.941704 18,050 64 408 -1472
2022-08-15 13:03:33 GMT 34.530670 -107.956482 18,225 65 409 -1408
2022-08-15 13:03:30 GMT 34.528355 -107.962532 18,300 65 409 -1408
2022-08-15 13:03:20 GMT 34.520718 -107.982330 18,500 64 409 -1344
2022-08-15 13:03:12 GMT 34.513870 -107.999863 18,700 64 409 -1408
2022-08-15 13:03:09 GMT 34.512341 -108.003845 18,750 64 408 -1472
2022-08-15 13:02:59 GMT 34.503891 -108.024979 19,000 63 408 -1344
2022-08-15 13:02:49 GMT 34.495396 -108.046021 19,225 63 406 -1344
2022-08-15 13:02:43 GMT 34.490459 -108.058144 19,375 63 405 -1408
2022-08-15 13:02:39 GMT 34.486679 -108.067574 19,475 63 405 -1408
2022-08-15 13:02:33 GMT 34.481941 -108.079262 19,600 64 403 -1408
2022-08-15 13:02:30 GMT 34.479080 -108.086464 19,700 64 403 -1408
2022-08-15 13:02:27 GMT 34.477146 -108.091225 19,750 64 402 -1408
2022-08-15 13:02:23 GMT 34.473656 -108.099915 19,850 64 401 -1408
2022-08-15 13:02:19 GMT 34.470337 -108.108330 19,950 64 400 -1408
2022-08-15 13:02:13 GMT 34.465668 -108.120270 20,075 64 399 -1472
2022-08-15 13:02:08 GMT 34.461922 -108.130074 20,200 65 398 -1472
2022-08-15 13:02:02 GMT 34.457268 -108.142090 20,325 64 397 -1216
2022-08-15 13:01:56 GMT 34.453262 -108.152382 20,425 64 397 -960
2022-08-15 13:01:51 GMT 34.449188 -108.162926 20,500 64 397 -1024
2022-08-15 13:01:46 GMT 34.444427 -108.175255 20,600 64 396 -1024
2022-08-15 13:01:41 GMT 34.441486 -108.182831 20,675 64 396 -1024
2022-08-15 13:01:37 GMT 34.437195 -108.193916 20,775 65 396 -960
2022-08-15 13:01:31 GMT 34.433292 -108.204063 20,850 65 396 -960
2022-08-15 13:01:24 GMT 34.428406 -108.216675 20,925 64 396 -960
2022-08-15 13:01:14 GMT 34.420631 -108.236847 21,100 64 397 -960
2022-08-15 13:01:04 GMT 34.412064 -108.258995 21,275 65 396 -960
2022-08-15 13:00:53 GMT 34.403965 -108.280106 21,450 65 396 -960
2022-08-15 13:00:44 GMT 34.396271 -108.300255 21,600 65 396 -960
2022-08-15 13:00:32 GMT 34.388214 -108.321442 21,750 65 396 -960
2022-08-15 13:00:18 GMT 34.376907 -108.351540 22,000 65 396 -960
2022-08-15 13:00:07 GMT 34.369583 -108.371498 22,175 66 395 -1024
2022-08-15 12:59:58 GMT 34.361511 -108.393517 22,350 66 395 -1024
2022-08-15 12:59:51 GMT 34.356716 -108.406563 22,450 65 396 -896
2022-08-15 12:59:47 GMT 34.354107 -108.413658 22,500 65 396 -896
2022-08-15 12:59:37 GMT 34.346054 -108.434944 22,650 65 396 -960
2022-08-15 12:59:26 GMT 34.338318 -108.455185 22,825 65 396 -896
2022-08-15 12:59:15 GMT 34.329987 -108.476929 23,000 65 395 -1024
2022-08-15 12:59:06 GMT 34.322067 -108.497391 23,175 64 396 -1344
2022-08-15 12:58:54 GMT 34.313843 -108.518539 23,450 64 395 -1472
2022-08-15 12:58:45 GMT 34.306046 -108.538811 23,700 65 394 -1472
2022-08-15 12:58:34 GMT 34.297829 -108.560143 23,950 64 395 -1472
2022-08-15 12:58:24 GMT 34.289959 -108.580284 24,200 64 394 -1600
2022-08-15 12:58:14 GMT 34.281628 -108.601570 24,475 64 396 -1536
2022-08-15 12:58:03 GMT 34.273666 -108.622002 24,750 64 399 -1600
2022-08-15 12:57:53 GMT 34.265350 -108.643517 25,025 65 402 -1536
2022-08-15 12:57:39 GMT 34.255554 -108.669304 25,350 65 405 -1536
2022-08-15 12:57:13 GMT 34.233994 -108.727203 26,050 65 415 -1600
2022-08-15 12:56:14 GMT 34.184372 -108.850967 28,075 64 424 -2304
2022-08-15 12:55:57 GMT 34.169861 -108.887909 28,725 64 426 -2048
2022-08-15 12:55:45 GMT 34.159973 -108.912849 29,100 64 428 -1984
2022-08-15 12:55:39 GMT 34.154755 -108.925911 29,300 64 431 -1856
2022-08-15 12:55:27 GMT 34.143692 -108.953590 29,700 64 434 -1728
2022-08-15 12:55:16 GMT 34.135254 -108.975349 30,000 65 436 -2240
2022-08-15 12:55:05 GMT 34.125870 -109.000465 30,400 65 438 -1856
2022-08-15 12:54:54 GMT 34.117252 -109.022774 30,675 64 441 -1536
2022-08-15 12:54:45 GMT 34.107800 -109.046631 30,950 64 446 -1472
2022-08-15 12:54:39 GMT 34.103748 -109.056931 31,050 64 448 -1408
2022-08-15 12:54:33 GMT 34.098537 -109.070145 31,175 64 451 -1344
2022-08-15 12:54:30 GMT 34.094719 -109.079765 31,300 64 453 -1408
2022-08-15 12:54:22 GMT 34.088387 -109.095779 31,475 64 457 -1472
2022-08-15 12:54:18 GMT 34.084805 -109.104881 31,575 64 458 -1472
2022-08-15 12:54:13 GMT 34.079269 -109.118904 31,700 64 462 -1408
2022-08-15 12:53:59 GMT 34.067093 -109.149673 32,000 64 469 -1472
2022-08-15 12:53:54 GMT 34.062424 -109.161499 32,125 64 470 -1472
2022-08-15 12:53:51 GMT 34.058735 -109.170799 32,225 64 475 -1472
2022-08-15 12:53:48 GMT 34.056107 -109.177422 32,275 64 476 -1408
2022-08-15 12:53:39 GMT 34.048370 -109.196983 32,500 64 477 -1408
2022-08-15 12:53:36 GMT 34.045944 -109.203033 32,550 64 477 -1344
2022-08-15 12:53:30 GMT 34.038803 -109.220970 32,700 64 476 -1280
2022-08-15 12:53:27 GMT 34.036057 -109.227814 32,750 64 476 -832
2022-08-15 12:53:19 GMT 34.029499 -109.244385 32,800 64 476 0
2022-08-15 12:53:15 GMT 34.025311 -109.254799 32,800 64 477 0
2022-08-15 12:53:05 GMT 34.015862 -109.278374 32,800 65 477 64
2022-08-15 12:52:58 GMT 34.008820 -109.297600 32,800 67 477 0
2022-08-15 12:52:55 GMT 34.006687 -109.303894 32,800 68 476 0
2022-08-15 12:52:44 GMT 33.998840 -109.329941 32,800 71 477 0
2022-08-15 12:52:34 GMT 33.992256 -109.356934 32,800 75 476 0
2022-08-15 12:52:23 GMT 33.987259 -109.384369 32,800 78 476 64
2022-08-15 12:52:13 GMT 33.982761 -109.411865 32,800 78 476 0
2022-08-15 12:52:06 GMT 33.980392 -109.426575 32,800 78 476 0
2022-08-15 12:52:01 GMT 33.978199 -109.439903 32,800 78 476 0
2022-08-15 12:51:58 GMT 33.976940 -109.447403 32,800 78 477 -64
2022-08-15 12:51:52 GMT 33.973728 -109.466858 32,800 78 477 -64
2022-08-15 12:51:41 GMT 33.968189 -109.500160 32,825 78 477 -704
2022-08-15 12:51:38 GMT 33.968189 -109.500160 32,850 78 477 -896
2022-08-15 12:51:30 GMT 33.964420 -109.522934 32,925 78 476 -192
2022-08-15 12:51:27 GMT 33.963089 -109.531113 32,925 78 477 512
2022-08-15 12:51:19 GMT 33.959885 -109.550621 32,800 78 477 1344
2022-08-15 12:51:16 GMT 33.958603 -109.558525 32,725 78 478 1536
2022-08-15 12:51:09 GMT 33.955341 -109.578438 32,550 78 480 960
2022-08-15 12:51:06 GMT 33.954025 -109.586494 32,525 78 479 768
2022-08-15 12:50:58 GMT 33.950966 -109.605042 32,400 78 478 960
2022-08-15 12:50:54 GMT 33.949196 -109.615913 32,325 78 477 960
2022-08-15 12:50:48 GMT 33.946682 -109.631081 32,250 78 477 960
2022-08-15 12:50:44 GMT 33.944679 -109.643379 32,175 78 477 832
2022-08-15 12:50:38 GMT 33.941936 -109.660088 32,075 78 476 832
2022-08-15 12:50:34 GMT 33.940353 -109.669701 32,025 78 476 960
2022-08-15 12:50:27 GMT 33.937500 -109.686996 31,925 78 476 832
2022-08-15 12:50:22 GMT 33.935139 -109.701347 31,850 78 474 832
2022-08-15 12:50:17 GMT 33.933014 -109.714348 31,775 78 474 960
2022-08-15 12:50:13 GMT 33.930313 -109.730492 31,675 78 474 896
2022-08-15 12:50:07 GMT 33.928574 -109.741257 31,600 78 473 896
2022-08-15 12:50:03 GMT 33.927689 -109.746384 31,575 78 473 960
2022-08-15 12:50:00 GMT 33.925922 -109.757195 31,500 78 473 960
2022-08-15 12:49:56 GMT 33.924133 -109.768105 31,450 78 472 896
2022-08-15 12:49:53 GMT 33.923264 -109.773209 31,425 78 472 896
2022-08-15 12:49:49 GMT 33.921616 -109.783295 31,350 78 471 896
2022-08-15 12:49:46 GMT 33.919823 -109.794044 31,275 78 471 960
2022-08-15 12:49:42 GMT 33.918705 -109.800735 31,250 77 470 960
2022-08-15 12:49:39 GMT 33.916855 -109.810371 31,200 76 470 960
2022-08-15 12:49:35 GMT 33.914330 -109.822250 31,125 74 470 832
2022-08-15 12:49:32 GMT 33.913147 -109.827408 31,100 73 470 832
2022-08-15 12:49:28 GMT 33.910233 -109.838737 31,025 72 469 832
2022-08-15 12:49:25 GMT 33.908047 -109.846802 30,975 72 469 832
2022-08-15 12:49:22 GMT 33.906418 -109.852966 30,950 72 468 896
2022-08-15 12:49:18 GMT 33.903259 -109.864685 30,875 72 468 1024
2022-08-15 12:49:14 GMT 33.900455 -109.875130 30,800 72 467 960
2022-08-15 12:49:11 GMT 33.899155 -109.880051 30,775 72 467 960
2022-08-15 12:49:06 GMT 33.896080 -109.891373 30,700 72 467 832
2022-08-15 12:49:03 GMT 33.893692 -109.900330 30,650 72 466 832
2022-08-15 12:49:00 GMT 33.892365 -109.905319 30,625 72 465 832
2022-08-15 12:48:57 GMT 33.889191 -109.917007 30,550 72 465 832
2022-08-15 12:48:53 GMT 33.886539 -109.926910 30,500 72 464 832
2022-08-15 12:48:50 GMT 33.885269 -109.931557 30,475 72 464 832
2022-08-15 12:48:46 GMT 33.882202 -109.943153 30,400 72 463 832
2022-08-15 12:48:43 GMT 33.880207 -109.950539 30,350 72 462 896
2022-08-15 12:48:39 GMT 33.878437 -109.957008 30,325 72 462 1024
2022-08-15 12:48:35 GMT 33.875198 -109.969109 30,225 72 461 1024
2022-08-15 12:48:32 GMT 33.873550 -109.975204 30,175 72 461 896
2022-08-15 12:48:29 GMT 33.871593 -109.982529 30,150 72 460 832
2022-08-15 12:48:23 GMT 33.865402 -110.005470 30,025 72 458 896
2022-08-15 12:48:20 GMT 33.863632 -110.011993 29,975 72 458 896
2022-08-15 12:48:13 GMT 33.861259 -110.020699 29,925 72 457 896
2022-08-15 12:48:10 GMT 33.854507 -110.045624 29,800 72 456 896
2022-08-15 12:48:03 GMT 33.854507 -110.045624 29,775 71 455 896
2022-08-15 12:48:00 GMT 33.852127 -110.054474 29,725 71 454 960
2022-08-15 12:47:53 GMT 33.847527 -110.071388 29,600 72 453 896
2022-08-15 12:47:50 GMT 33.846455 -110.075394 29,550 72 451 896
2022-08-15 12:47:47 GMT 33.844070 -110.084183 29,525 72 451 1024
2022-08-15 12:47:42 GMT 33.840637 -110.096855 29,425 72 450 1088
2022-08-15 12:47:39 GMT 33.838486 -110.104866 29,375 72 450 1024
2022-08-15 12:47:30 GMT 33.832626 -110.126617 29,200 72 449 1152
2022-08-15 12:47:27 GMT 33.831299 -110.131439 29,175 72 448 1216
2022-08-15 12:47:21 GMT 33.826813 -110.148064 29,025 71 449 1088
2022-08-15 12:47:18 GMT 33.824764 -110.155502 28,975 71 448 1024
2022-08-15 12:47:09 GMT 33.819855 -110.173592 28,800 71 447 1216
2022-08-15 12:47:06 GMT 33.818199 -110.179771 28,775 71 447 1216
2022-08-15 12:47:00 GMT 33.813309 -110.197693 28,625 72 446 1088
2022-08-15 12:46:57 GMT 33.811523 -110.204247 28,575 71 445 1152
2022-08-15 12:46:48 GMT 33.805676 -110.225777 28,400 71 445 1344
2022-08-15 12:46:45 GMT 33.804699 -110.229378 28,350 71 445 1280
2022-08-15 12:46:40 GMT 33.800629 -110.244324 28,250 71 444 1088
2022-08-15 12:46:36 GMT 33.797974 -110.254135 28,150 71 444 1280
2022-08-15 12:46:28 GMT 33.792686 -110.273552 27,975 71 443 1088
2022-08-15 12:46:25 GMT 33.791336 -110.278465 27,950 71 443 1024
2022-08-15 12:46:17 GMT 33.785660 -110.299316 27,775 71 442 1408
2022-08-15 12:46:14 GMT 33.784653 -110.302956 27,725 71 442 1408
2022-08-15 12:46:09 GMT 33.781540 -110.314392 27,575 71 442 1280
2022-08-15 12:46:06 GMT 33.779022 -110.323586 27,500 71 442 1344
2022-08-15 12:46:03 GMT 33.777699 -110.328369 27,500 71 442 1344
2022-08-15 12:46:00 GMT 33.774811 -110.339066 27,375 71 442 1536
2022-08-15 12:45:57 GMT 33.773575 -110.343597 27,325 71 442 1536
2022-08-15 12:45:53 GMT 33.771011 -110.352791 27,225 71 442 1472
2022-08-15 12:45:47 GMT 33.766708 -110.368484 27,075 71 442 1280
2022-08-15 12:45:43 GMT 33.764431 -110.376778 27,000 71 441 1344
2022-08-15 12:45:35 GMT 33.760101 -110.392632 26,775 71 440 1344
2022-08-15 12:45:32 GMT 33.757683 -110.401443 26,750 71 440 1280
2022-08-15 12:45:26 GMT 33.753353 -110.417351 26,600 71 439 1216
2022-08-15 12:45:22 GMT 33.751163 -110.425415 26,525 71 439 1408
2022-08-15 12:45:17 GMT 33.748230 -110.436234 26,425 71 438 1408
2022-08-15 12:45:14 GMT 33.746555 -110.442184 26,300 71 438 1408
2022-08-15 12:45:11 GMT 33.744507 -110.449760 26,275 71 438 1344
2022-08-15 12:45:05 GMT 33.739990 -110.466270 26,125 71 437 1280
2022-08-15 12:45:01 GMT 33.737804 -110.474220 26,050 71 437 1280
2022-08-15 12:44:58 GMT 33.736633 -110.478569 26,025 71 437 1280
2022-08-15 12:44:54 GMT 33.733841 -110.488770 25,925 71 436 1280
2022-08-15 12:44:50 GMT 33.731098 -110.498657 25,825 71 435 1344
2022-08-15 12:44:45 GMT 33.727798 -110.510689 25,700 71 434 1216
2022-08-15 12:44:41 GMT 33.724957 -110.521027 25,600 71 434 1280
2022-08-15 12:44:38 GMT 33.723930 -110.524696 25,575 71 434 1280
2022-08-15 12:44:33 GMT 33.720577 -110.536880 25,475 71 433 1280
2022-08-15 12:44:28 GMT 33.717648 -110.547523 25,350 71 432 1280
2022-08-15 12:44:25 GMT 33.714798 -110.557831 25,250 71 431 1216
2022-08-15 12:44:20 GMT 33.710358 -110.573975 25,125 71 431 1536
2022-08-15 12:44:17 GMT 33.710358 -110.573975 25,100 71 431 1536
2022-08-15 12:44:12 GMT 33.706612 -110.587631 24,950 71 430 1472
2022-08-15 12:44:07 GMT 33.704563 -110.595078 24,875 71 429 1408
2022-08-15 12:44:04 GMT 33.701633 -110.605598 24,750 71 429 1600
2022-08-15 12:44:01 GMT 33.700378 -110.610184 24,650 71 429 1664
2022-08-15 12:43:58 GMT 33.697906 -110.619049 24,600 71 428 1600
2022-08-15 12:43:55 GMT 33.696625 -110.623802 24,550 71 428 1600
2022-08-15 12:43:52 GMT 33.691856 -110.641083 24,400 71 428 1216
2022-08-15 12:43:48 GMT 33.691856 -110.641083 24,375 71 427 1152
2022-08-15 12:43:45 GMT 33.690994 -110.644264 24,350 71 427 1152
2022-08-15 12:43:41 GMT 33.687515 -110.656929 24,225 71 425 1344
2022-08-15 12:43:38 GMT 33.686005 -110.662315 24,150 71 425 1408
2022-08-15 12:43:35 GMT 33.684402 -110.668251 24,150 71 425 1408
2022-08-15 12:43:29 GMT 33.680923 -110.680809 23,975 71 423 1344
2022-08-15 12:43:25 GMT 33.678543 -110.689331 23,850 71 423 1280
2022-08-15 12:43:22 GMT 33.675476 -110.700424 23,775 71 422 1408
2022-08-15 12:43:17 GMT 33.673141 -110.708939 23,650 71 421 1600
2022-08-15 12:43:14 GMT 33.671513 -110.714890 23,600 71 421 1664
2022-08-15 12:43:10 GMT 33.668953 -110.724052 23,450 71 421 1408
2022-08-15 12:43:07 GMT 33.666718 -110.732178 23,400 71 420 1216
2022-08-15 12:43:04 GMT 33.665321 -110.737328 23,400 71 420 1216
2022-08-15 12:43:01 GMT 33.662979 -110.745773 23,275 71 419 1216
2022-08-15 12:42:56 GMT 33.660339 -110.755295 23,175 71 418 1408
2022-08-15 12:42:53 GMT 33.658756 -110.760902 23,125 71 417 1408
2022-08-15 12:42:49 GMT 33.656387 -110.769485 22,725 71 416 1600
2022-08-15 12:42:44 GMT 33.652588 -110.783165 22,875 71 416 1600
2022-08-15 12:42:38 GMT 33.649429 -110.794655 22,725 71 415 1664
2022-08-15 12:42:33 GMT 33.646374 -110.805534 22,575 71 415 1600
2022-08-15 12:42:30 GMT 33.644558 -110.812111 22,500 71 415 1600
2022-08-15 12:42:27 GMT 33.642151 -110.820831 22,400 71 414 1600
2022-08-15 12:42:23 GMT 33.639812 -110.829277 22,275 71 412 1728
2022-08-15 12:42:17 GMT 33.636475 -110.841179 22,150 71 412 1664
2022-08-15 12:42:14 GMT 33.633591 -110.851662 22,025 71 412 1600
2022-08-15 12:42:11 GMT 33.633591 -110.851662 22,000 71 412 1536
2022-08-15 12:42:07 GMT 33.630386 -110.863205 21,850 71 411 1792
2022-08-15 12:42:02 GMT 33.627193 -110.874710 21,700 71 411 1792
2022-08-15 12:41:57 GMT 33.622261 -110.892509 21,500 71 410 1536
2022-08-15 12:41:53 GMT 33.622261 -110.892509 21,450 71 410 1728
2022-08-15 12:41:50 GMT 33.620724 -110.898003 21,450 71 410 1728
2022-08-15 12:41:46 GMT 33.617523 -110.909447 21,225 71 409 1984
2022-08-15 12:41:43 GMT 33.614548 -110.920158 21,100 71 409 1856
2022-08-15 12:41:40 GMT 33.614548 -110.920158 21,075 71 408 1792
2022-08-15 12:41:36 GMT 33.612122 -110.928787 20,950 71 408 1728
2022-08-15 12:41:32 GMT 33.609550 -110.938049 20,800 71 407 1664
2022-08-15 12:41:29 GMT 33.608276 -110.942635 20,775 71 407 1664
2022-08-15 12:41:25 GMT 33.604980 -110.954407 20,625 71 406 1792
2022-08-15 12:41:22 GMT 33.603222 -110.960655 20,500 71 406 1856
2022-08-15 12:41:19 GMT 33.602058 -110.964828 20,475 71 406 1856
2022-08-15 12:41:14 GMT 33.598801 -110.976379 20,300 71 406 1728
2022-08-15 12:41:09 GMT 33.595585 -110.987892 20,150 71 405 1728
2022-08-15 12:41:06 GMT 33.594498 -110.991791 20,100 71 405 1856
2022-08-15 12:41:03 GMT 33.592049 -111.000481 19,975 71 403 1920
2022-08-15 12:40:59 GMT 33.589874 -111.008217 19,825 71 403 1728
2022-08-15 12:40:55 GMT 33.588093 -111.014610 19,775 71 402 1728
2022-08-15 12:40:52 GMT 33.586090 -111.021767 19,675 71 402 1856
2022-08-15 12:40:48 GMT 33.582870 -111.033157 19,500 71 401 1856
2022-08-15 12:40:44 GMT 33.578842 -111.047508 19,350 71 401 1856
2022-08-15 12:40:41 GMT 33.577618 -111.051926 19,250 71 400 1792
2022-08-15 12:40:38 GMT 33.577618 -111.051926 19,175 71 400 1728
2022-08-15 12:40:35 GMT 33.575893 -111.058159 19,150 71 400 1728
2022-08-15 12:40:31 GMT 33.573753 -111.065765 19,075 71 399 1664
2022-08-15 12:40:27 GMT 33.570866 -111.076126 18,900 71 398 1792
2022-08-15 12:40:22 GMT 33.567764 -111.087189 18,675 71 397 1984
2022-08-15 12:40:19 GMT 33.566025 -111.093468 18,600 71 396 1984
2022-08-15 12:40:16 GMT 33.564651 -111.098343 18,550 71 396 1920
2022-08-15 12:40:11 GMT 33.561649 -111.109085 18,400 71 395 1600
2022-08-15 12:40:06 GMT 33.558437 -111.120644 18,275 71 393 1472
2022-08-15 12:40:01 GMT 33.554852 -111.133514 18,100 71 390 1984
2022-08-15 12:39:56 GMT 33.552990 -111.140213 17,950 71 390 1984
2022-08-15 12:39:53 GMT 33.551559 -111.145432 17,900 71 390 1920
2022-08-15 12:39:48 GMT 33.546520 -111.163506 17,700 71 388 1664
2022-08-15 12:39:45 GMT 33.546520 -111.163506 17,650 71 388 1600
2022-08-15 12:39:41 GMT 33.544144 -111.171890 17,525 71 386 1536
2022-08-15 12:39:38 GMT 33.543121 -111.175629 17,500 71 386 1472
2022-08-15 12:39:35 GMT 33.540939 -111.183434 17,400 71 384 1600
2022-08-15 12:39:32 GMT 33.539585 -111.188202 17,325 71 383 1856
2022-08-15 12:39:27 GMT 33.536499 -111.198944 17,100 72 382 1984
2022-08-15 12:39:24 GMT 33.534927 -111.204788 17,025 73 381 2048
2022-08-15 12:39:21 GMT 33.531437 -111.219528 16,925 75 380 1984
2022-08-15 12:39:17 GMT 33.531437 -111.219528 16,775 76 379 1856
2022-08-15 12:39:14 GMT 33.530182 -111.225700 16,675 77 378 1792
2022-08-15 12:39:11 GMT 33.529266 -111.230637 16,625 77 378 1856
2022-08-15 12:39:08 GMT 33.527939 -111.238495 16,500 79 377 2048
2022-08-15 12:39:05 GMT 33.527252 -111.243271 16,375 80 375 2240
2022-08-15 12:39:02 GMT 33.526409 -111.249352 16,325 80 375 2176
2022-08-15 12:38:58 GMT 33.525246 -111.257706 16,125 80 374 1984
2022-08-15 12:38:55 GMT 33.524361 -111.264259 16,025 80 374 1984
2022-08-15 12:38:52 GMT 33.523430 -111.270988 15,950 80 374 1856
2022-08-15 12:38:48 GMT 33.522266 -111.279343 15,775 80 373 1856
2022-08-15 12:38:45 GMT 33.521240 -111.286514 15,700 80 372 1920
2022-08-15 12:38:42 GMT 33.520706 -111.290512 15,625 80 371 1984
2022-08-15 12:38:39 GMT 33.519939 -111.295708 15,575 80 370 2112
2022-08-15 12:38:34 GMT 33.518188 -111.308479 15,325 80 369 2432
2022-08-15 12:38:31 GMT 33.517456 -111.313644 15,225 80 369 2432
2022-08-15 12:38:26 GMT 33.515934 -111.324516 15,000 80 367 2304
2022-08-15 12:38:23 GMT 33.515167 -111.329849 14,875 80 367 2112
2022-08-15 12:38:20 GMT 33.514572 -111.334351 14,825 80 366 2112
2022-08-15 12:38:16 GMT 33.513420 -111.342453 14,625 80 365 2176
2022-08-15 12:38:13 GMT 33.511551 -111.355881 14,525 80 365 2112
2022-08-15 12:38:10 GMT 33.510132 -111.366104 14,400 80 364 1984
2022-08-15 12:38:05 GMT 33.510132 -111.366104 14,275 80 363 1984
2022-08-15 12:38:00 GMT 33.508858 -111.374969 14,100 80 362 2112
2022-08-15 12:37:57 GMT 33.508301 -111.378899 14,050 80 362 2112
2022-08-15 12:37:54 GMT 33.507416 -111.385223 13,925 80 361 2240
2022-08-15 12:37:51 GMT 33.506439 -111.392288 13,775 80 361 2432
2022-08-15 12:37:47 GMT 33.505322 -111.400078 13,625 80 361 2496
2022-08-15 12:37:44 GMT 33.504158 -111.408203 13,450 80 361 2496
2022-08-15 12:37:39 GMT 33.502899 -111.417191 13,250 80 361 2496
2022-08-15 12:37:36 GMT 33.502483 -111.420036 13,200 80 361 2560
2022-08-15 12:37:32 GMT 33.501251 -111.428726 13,000 80 361 2560
2022-08-15 12:37:29 GMT 33.500248 -111.435616 12,800 80 361 2496
2022-08-15 12:37:26 GMT 33.499454 -111.441277 12,750 80 361 2496
2022-08-15 12:37:23 GMT 33.498341 -111.449234 12,575 80 361 2368
2022-08-15 12:37:18 GMT 33.496490 -111.462013 12,400 80 360 2304
2022-08-15 12:37:12 GMT 33.494476 -111.476402 12,150 80 360 2496
2022-08-15 12:37:09 GMT 33.494476 -111.476402 12,025 80 360 2368
2022-08-15 12:37:05 GMT 33.493637 -111.482254 11,925 80 359 2304
2022-08-15 12:37:01 GMT 33.492474 -111.490494 11,800 80 359 2304
2022-08-15 12:36:57 GMT 33.491135 -111.499916 11,575 80 358 2432
2022-08-15 12:36:54 GMT 33.490749 -111.502541 11,525 80 358 2368
2022-08-15 12:36:50 GMT 33.489494 -111.511398 11,350 80 356 2112
2022-08-15 12:36:47 GMT 33.488655 -111.517395 11,200 80 354 1728
2022-08-15 12:36:44 GMT 33.487839 -111.523209 11,175 80 354 1664
2022-08-15 12:36:41 GMT 33.486923 -111.529854 11,050 80 351 1344
2022-08-15 12:36:37 GMT 33.485630 -111.539085 11,000 80 349 960
2022-08-15 12:36:34 GMT 33.485092 -111.542870 10,975 80 346 960
2022-08-15 12:36:30 GMT 33.483814 -111.551872 10,875 80 342 1024
2022-08-15 12:36:26 GMT 33.483032 -111.557205 10,800 80 337 960
2022-08-15 12:36:23 GMT 33.482277 -111.562744 10,775 80 336 960
2022-08-15 12:36:19 GMT 33.481201 -111.570114 10,725 80 332 1024
2022-08-15 12:36:15 GMT 33.480091 -111.577934 10,650 80 329 1088
2022-08-15 12:36:12 GMT 33.479576 -111.581688 10,600 80 326 1088
2022-08-15 12:36:09 GMT 33.478409 -111.589783 10,525 80 322 1024
2022-08-15 12:36:05 GMT 33.477631 -111.595108 10,425 80 317 1152
2022-08-15 12:36:02 GMT 33.476898 -111.600327 10,400 80 317 1216
2022-08-15 12:35:58 GMT 33.475800 -111.607803 10,300 80 313 1472
2022-08-15 12:35:54 GMT 33.474133 -111.619354 10,150 80 309 2112
2022-08-15 12:35:51 GMT 33.474133 -111.619354 10,100 80 309 2176
2022-08-15 12:35:48 GMT 33.473190 -111.625931 9,950 80 308 2304
2022-08-15 12:35:45 GMT 33.472408 -111.631241 9,825 80 308 2176
2022-08-15 12:35:42 GMT 33.471909 -111.634880 9,775 80 308 2176
2022-08-15 12:35:35 GMT 33.469242 -111.653320 9,450 80 305 2240
2022-08-15 12:35:32 GMT 33.469242 -111.653320 9,375 80 304 2368
2022-08-15 12:35:27 GMT 33.468246 -111.660095 9,200 80 304 2432
2022-08-15 12:35:24 GMT 33.466869 -111.669861 9,050 80 303 2304
2022-08-15 12:35:21 GMT 33.466869 -111.669861 8,975 80 303 2112
2022-08-15 12:35:17 GMT 33.465912 -111.676468 8,825 80 301 1856
2022-08-15 12:35:14 GMT 33.465054 -111.682640 8,675 80 299 1920
2022-08-15 12:35:10 GMT 33.464264 -111.688278 8,625 80 298 1856
2022-08-15 12:35:07 GMT 33.463425 -111.694077 8,500 80 296 1728
2022-08-15 12:35:04 GMT 33.462982 -111.697227 8,400 80 294 1792
2022-08-15 12:35:01 GMT 33.462029 -111.703880 8,325 80 294 1920
2022-08-15 12:34:56 GMT 33.461014 -111.710739 8,175 80 292 2176
2022-08-15 12:34:53 GMT 33.460587 -111.713860 8,100 80 291 2176
2022-08-15 12:34:50 GMT 33.459457 -111.721565 7,925 80 290 2176
2022-08-15 12:34:45 GMT 33.458359 -111.728813 7,750 80 289 2240
2022-08-15 12:34:42 GMT 33.457653 -111.733818 7,625 80 288 2304
2022-08-15 12:34:38 GMT 33.457031 -111.737770 7,550 79 287 2368
2022-08-15 12:34:34 GMT 33.455978 -111.744858 7,325 79 287 2368
2022-08-15 12:34:31 GMT 33.455185 -111.750015 7,225 79 286 2368
2022-08-15 12:34:28 GMT 33.454441 -111.755058 7,100 79 286 2368
2022-08-15 12:34:24 GMT 33.453461 -111.761497 6,925 79 285 2304
2022-08-15 12:34:21 GMT 33.452518 -111.766121 5,500 80 278 2240
2022-08-15 12:34:20 GMT 33.452301 -111.767632 5,500 80 278 2240
2022-08-15 12:34:19 GMT 33.452080 -111.769150 6,725 80 278 2240
2022-08-15 12:34:17 GMT 33.451649 -111.772171 5,500 80 278 2240
2022-08-15 12:34:16 GMT 33.451431 -111.773689 5,500 80 278 2240
2022-08-15 12:34:15 GMT 33.451210 -111.775200 5,500 80 278 2240
2022-08-15 12:34:14 GMT 33.450779 -111.778229 5,500 80 278 2240
2022-08-15 12:34:12 GMT 33.450562 -111.779747 5,500 80 278 2240
2022-08-15 12:34:11 GMT 33.450119 -111.782768 5,500 80 278 2240
2022-08-15 12:34:09 GMT 33.449909 -111.784286 5,500 80 278 1376
2022-08-15 12:34:08 GMT 33.449471 -111.787323 5,500 80 278 1376
2022-08-15 12:34:06 GMT 33.449249 -111.788834 5,500 80 278 1376
2022-08-15 12:34:05 GMT 33.449039 -111.790337 5,500 80 278 1376
2022-08-15 12:34:03 GMT 33.448601 -111.793373 5,500 80 278 1376
2022-08-15 12:34:02 GMT 33.448380 -111.794891 5,500 80 278 1376
2022-08-15 12:34:01 GMT 33.448158 -111.796402 5,500 80 278 1376
2022-08-15 12:34:00 GMT 33.447731 -111.799431 5,500 80 278 1376
2022-08-15 12:33:58 GMT 33.447510 -111.800941 5,500 80 278 1376
2022-08-15 12:33:56 GMT 33.447071 -111.803970 5,500 80 278 1376
2022-08-15 12:33:55 GMT 33.446861 -111.805489 5,500 80 278 1376
2022-08-15 12:33:53 GMT 33.446419 -111.808510 5,500 80 278 1376
2022-08-15 12:33:51 GMT 33.445980 -111.811539 5,500 80 278 1376
2022-08-15 12:33:50 GMT 33.445480 -111.814659 5,400 80 276 1376
2022-08-15 12:33:48 GMT 33.445271 -111.816170 5,400 80 276 1376
2022-08-15 12:33:46 GMT 33.444839 -111.819183 5,400 80 276 1376
2022-08-15 12:33:45 GMT 33.444481 -111.820740 5,000 80 275 1376
2022-08-15 12:33:44 GMT 33.444069 -111.823738 5,000 80 275 1376
2022-08-15 12:33:42 GMT 33.443871 -111.825241 5,000 80 275 1376
2022-08-15 12:33:41 GMT 33.443481 -111.828239 5,000 80 275 1376
2022-08-15 12:33:39 GMT 33.443279 -111.829742 5,000 80 275 1376
2022-08-15 12:33:38 GMT 33.442860 -111.832741 5,000 80 275 1376
2022-08-15 12:33:36 GMT 33.442612 -111.834480 4,800 79 271 1376
2022-08-15 12:33:35 GMT 33.442200 -111.837433 4,800 79 271 1376
2022-08-15 12:33:33 GMT 33.442001 -111.838913 4,800 79 271 1376
2022-08-15 12:33:31 GMT 33.442131 -111.841988 4,500 78 272 1376
2022-08-15 12:33:30 GMT 33.441879 -111.843460 4,500 78 272 1376
2022-08-15 12:33:29 GMT 33.441368 -111.846413 4,500 78 272 1376
2022-08-15 12:33:27 GMT 33.441170 -111.847839 4,500 78 271 1376
2022-08-15 12:33:25 GMT 33.440681 -111.850792 4,500 78 271 1376
2022-08-15 12:33:24 GMT 33.440430 -111.852257 4,500 78 271 1376
2022-08-15 12:33:22 GMT 33.440121 -111.855301 4,300 79 268 1376
2022-08-15 12:33:20 GMT 33.439629 -111.858200 4,300 79 268 1376
2022-08-15 12:33:19 GMT 33.439381 -111.859650 4,300 79 268 1376
2022-08-15 12:33:18 GMT 33.438770 -111.862663 4,300 80 262 1376
2022-08-15 12:33:16 GMT 33.438568 -111.864090 4,300 80 262 1376
2022-08-15 12:33:14 GMT 33.438160 -111.866943 4,300 80 262 1376
2022-08-15 12:33:13 GMT 33.437870 -111.868378 4,000 82 260 1376
2022-08-15 12:33:11 GMT 33.437538 -111.871231 4,000 82 260 1376
2022-08-15 12:33:10 GMT 33.437382 -111.872650 4,000 82 260 1376
2022-08-15 12:33:09 GMT 33.436989 -111.875504 4,000 83 259 896
2022-08-15 12:33:06 GMT 33.436680 -111.878311 4,000 84 260 896
2022-08-15 12:33:05 GMT 33.436401 -111.881157 3,900 86 258 896
2022-08-15 12:33:03 GMT 33.436279 -111.882629 3,900 86 255 896
2022-08-15 12:33:02 GMT 33.436199 -111.884071 3,900 86 253 896
2022-08-15 12:33:00 GMT 33.436050 -111.886887 3,900 87 250 896
2022-08-15 12:32:59 GMT 33.436001 -111.888260 3,700 86 252 896
2022-08-15 12:32:58 GMT 33.435959 -111.889610 3,700 86 253 896
2022-08-15 12:32:56 GMT 33.435829 -111.892433 3,700 86 249 896
2022-08-15 12:32:55 GMT 33.435749 -111.893860 3,700 86 245 896
2022-08-15 12:32:53 GMT 33.435612 -111.896584 3,700 86 245 896
2022-08-15 12:32:52 GMT 33.435551 -111.897911 3,700 86 245 896
2022-08-15 12:32:50 GMT 33.435440 -111.900642 3,500 86 241 896
2022-08-15 12:32:49 GMT 33.435329 -111.903358 3,500 86 238 896
2022-08-15 12:32:47 GMT 33.435249 -111.904671 3,500 86 238 896
2022-08-15 12:32:46 GMT 33.435181 -111.905991 3,500 86 236 896
2022-08-15 12:32:44 GMT 33.435051 -111.908600 3,300 86 237 896
2022-08-15 12:32:43 GMT 33.434910 -111.911186 3,300 86 236 896
2022-08-15 12:32:41 GMT 33.434849 -111.912521 3,300 85 235 896
2022-08-15 12:32:40 GMT 33.434719 -111.915108 3,300 85 232 896
2022-08-15 12:32:38 GMT 33.434639 -111.916389 3,300 85 231 896
2022-08-15 12:32:35 GMT 33.434391 -111.920197 3,200 84 227 896
2022-08-15 12:32:34 GMT 33.434189 -111.922707 3,200 85 224 896
2022-08-15 12:32:32 GMT 33.434090 -111.923927 3,200 85 224 896
2022-08-15 12:32:31 GMT 33.433949 -111.926407 3,200 84 218 896
2022-08-15 12:32:29 GMT 33.433849 -111.927650 3,200 84 216 896
2022-08-15 12:32:27 GMT 33.433659 -111.930061 3,100 84 212 896
2022-08-15 12:32:26 GMT 33.433590 -111.931221 3,100 84 212 896
2022-08-15 12:32:25 GMT 33.433430 -111.933594 3,100 84 208 896
2022-08-15 12:32:23 GMT 33.433319 -111.934761 3,100 84 207 896
2022-08-15 12:32:22 GMT 33.433220 -111.935944 2,900 84 204 896
2022-08-15 12:32:21 GMT 33.433060 -111.938202 2,900 84 203 896
2022-08-15 12:32:19 GMT 33.432961 -111.939278 2,900 84 206 896
2022-08-15 12:32:17 GMT 33.432751 -111.941589 2,900 84 200 896
2022-08-15 12:32:16 GMT 33.432671 -111.942673 2,900 84 202 896
2022-08-15 12:32:15 GMT 33.432522 -111.944870 2,900 84 202 896
2022-08-15 12:32:13 GMT 33.432442 -111.945992 2,800 84 200 896
2022-08-15 12:32:11 GMT 33.432240 -111.948196 2,800 85 197 896
2022-08-15 12:32:09 GMT 33.432079 -111.950409 2,800 85 193 896
2022-08-15 12:32:08 GMT 33.432018 -111.951508 2,800 85 190 -96
2022-08-15 12:32:07 GMT 33.431938 -111.952583 2,800 85 188 -96
2022-08-15 12:32:05 GMT 33.431782 -111.954643 2,800 86 188 -96
2022-08-15 12:32:04 GMT 33.431702 -111.955727 2,750 87 184 -96
2022-08-15 12:32:02 GMT 33.431641 -111.957779 2,700 86 182 -96
2022-08-15 12:32:01 GMT 33.431599 -111.958794 2,700 85 182 -96
2022-08-15 12:32:00 GMT 33.431461 -111.960854 2,600 86 179 -96
2022-08-15 12:31:58 GMT 33.431400 -111.961853 2,600 87 177 -96
2022-08-15 12:31:57 GMT 33.431309 -111.963799 2,600 87 179 -96
2022-08-15 12:31:55 GMT 33.431290 -111.964790 2,525 87 180 -96
2022-08-15 12:31:53 GMT 33.431179 -111.966812 2,525 88 176 -96
2022-08-15 12:31:52 GMT 33.431129 -111.967781 2,400 89 175 -96
2022-08-15 12:31:51 GMT 33.431190 -111.969711 2,425 86 178 -96
2022-08-15 12:31:49 GMT 33.431080 -111.970734 2,325 88 174 -96
2022-08-15 12:31:48 GMT 33.431042 -111.971680 2,325 89 175 -96
2022-08-15 12:31:47 GMT 33.431019 -111.973633 2,200 87 175 -96
2022-08-15 12:31:44 GMT 33.430981 -111.975563 2,200 87 176 -96
2022-08-15 12:31:43 GMT 33.430920 -111.976547 2,200 88 174 -96
2022-08-15 12:31:42 GMT 33.430882 -111.977539 2,100 88 170 -96
2022-08-15 12:31:40 GMT 33.430828 -111.979370 2,100 90 175 -96
2022-08-15 12:31:39 GMT 33.430820 -111.981339 2,000 89 168 -96
2022-08-15 12:31:37 GMT 33.430840 -111.982246 2,000 88 171 -96
2022-08-15 12:31:36 GMT 33.430809 -111.983253 1,900 88 165 -96
2022-08-15 12:31:34 GMT 33.430771 -111.985031 1,900 90 171 -96
2022-08-15 12:31:33 GMT 33.430820 -111.986923 1,825 88 169 -96
2022-08-15 12:31:31 GMT 33.430759 -111.987808 1,825 91 175 -96
2022-08-15 12:31:30 GMT 33.430779 -111.988831 1,675 91 160 -96
2022-08-15 12:31:29 GMT 33.430828 -111.990593 1,675 90 161 -96
2022-08-15 12:31:27 GMT 33.430828 -111.991493 1,675 91 161 -96
2022-08-15 12:31:26 GMT 33.430851 -111.993279 1,625 91 166 -96
2022-08-15 12:31:24 GMT 33.430870 -111.994186 1,575 91 171 -96
2022-08-15 12:31:22 GMT 33.430908 -111.996040 1,450 92 164 -96
2022-08-15 12:31:19 GMT 33.430977 -111.999786 1,350 91 168 2496
2022-08-15 12:31:16 GMT 33.431011 -112.001534 1,250 90 172 -96
2022-08-15 12:31:14 GMT 33.431042 -112.004356 1,250 90 160 192
2022-08-15 12:31:12 GMT 33.431042 -112.005302 1,200 90 163 -96
2022-08-15 12:31:10 GMT 33.431042 -112.007080 1,200 90 159 -96
2022-08-15 12:31:08 GMT 33.431049 -112.008827 1,200 90 152 -96
2022-08-15 12:31:07 GMT 33.431068 -112.009659 0 89 151 -96
2022-08-15 12:31:06 GMT 33.431068 -112.010513 0 89 145 -96
2022-08-15 12:31:04 GMT 33.431061 -112.012108 0 89 139 -96
2022-08-15 12:31:02 GMT 33.431061 -112.013618 0 90 134 -96
2022-08-15 12:31:00 GMT 33.431068 -112.015091 0 89 125 -96
2022-08-15 12:30:59 GMT 33.431068 -112.015793 0 89 121 -96
2022-08-15 12:30:57 GMT 33.431068 -112.017113 0 89 115 -96
2022-08-15 12:30:56 GMT 33.431061 -112.017754 0 89 111
2022-08-15 12:30:54 GMT 33.431030 -112.018951 0 90 105
2022-08-15 12:30:53 GMT 33.431030 -112.019539 0 90 100
2022-08-15 12:30:51 GMT 33.431049 -112.020630 0 90 91
2022-08-15 12:30:50 GMT 33.431049 -112.021141 0 90 86
2022-08-15 12:30:48 GMT 33.431042 -112.022057 0 91 79
2022-08-15 12:30:46 GMT 33.431061 -112.022926 0 91 69
2022-08-15 12:30:44 GMT 33.431091 -112.023682 0 88 59
2022-08-15 12:30:43 GMT 33.431080 -112.024040 0 89 53
2022-08-15 12:30:41 GMT 33.431080 -112.024620 0 90 44
2022-08-15 12:30:40 GMT 33.431099 -112.024902 0 86 37
2022-08-15 12:30:39 GMT 33.431061 -112.025307 0 90 31
2022-08-15 12:30:37 GMT 33.431049 -112.025497 0 90 27
2022-08-15 12:30:35 GMT 33.431068 -112.025833 0 88 20
2022-08-15 12:30:34 GMT 33.431049 -112.025963 0 97 17
2022-08-15 12:30:32 GMT 33.431080 -112.026138 0 83 17
2022-08-15 12:30:30 GMT 33.431068 -112.026321 0 90 16
2022-08-15 12:30:29 GMT 33.431080 -112.026421 0 96 13
2022-08-15 12:30:27 GMT 33.431068 -112.026558 0 113 14
2022-08-15 12:30:26 GMT 33.431091 -112.026649 0 123 12
2022-08-15 12:30:24 GMT 33.431160 -112.026756 0 129 14
2022-08-15 12:30:23 GMT 33.431171 -112.026817 0 143 15
2022-08-15 12:30:21 GMT 33.431278 -112.026939 0 162 15
2022-08-15 12:30:20 GMT 33.431339 -112.026962 0 165 15
2022-08-15 12:30:19 GMT 33.431469 -112.027023 0 186 14
2022-08-15 12:30:17 GMT 33.431549 -112.027023 0 187 12
2022-08-15 12:30:16 GMT 33.431599 -112.027008 0 184 15
2022-08-15 12:30:14 GMT 33.431728 -112.026978 0 188 14
2022-08-15 12:30:13 GMT 33.431789 -112.026970 0 199 13
2022-08-15 12:30:12 GMT 33.431889 -112.026962 0 213 15
2022-08-15 12:30:10 GMT 33.431980 -112.026909 0 229 13
2022-08-15 12:30:09 GMT 33.432091 -112.026863 0 252 13
2022-08-15 12:30:07 GMT 33.432110 -112.026787 0 250 13
2022-08-15 12:30:05 GMT 33.432159 -112.026642 0 261 12
2022-08-15 12:30:04 GMT 33.432178 -112.026573 0 268 10
2022-08-15 12:30:03 GMT 33.432190 -112.026527 0 273 12
2022-08-15 12:30:01 GMT 33.432178 -112.026390 0 274 13
2022-08-15 12:30:00 GMT 33.432171 -112.026299 0 271 10
2022-08-15 12:29:58 GMT 33.432159 -112.026192 0 269 12
2022-08-15 12:29:57 GMT 33.432159 -112.026123 0 267 10
2022-08-15 12:29:55 GMT 33.432159 -112.026009 0 262 10
2022-08-15 12:29:54 GMT 33.432171 -112.025963 0 267 11
2022-08-15 12:29:52 GMT 33.432178 -112.025833 0 270 9
2022-08-15 12:29:51 GMT 33.432178 -112.025780 0 271 11
2022-08-15 12:29:49 GMT 33.432178 -112.025673 0 274 15
2022-08-15 12:29:47 GMT 33.432159 -112.025497 0 268 16
2022-08-15 12:29:46 GMT 33.432171 -112.025322 0 277 14
2022-08-15 12:29:44 GMT 33.432152 -112.025146 0 272 14
2022-08-15 12:29:43 GMT 33.432129 -112.025093 0 264 16
2022-08-15 12:29:41 GMT 33.432129 -112.024918 0 258 16
2022-08-15 12:29:39 GMT 33.432140 -112.024818 0 257 15
2022-08-15 12:29:38 GMT 33.432190 -112.024673 0 273 18
2022-08-15 12:29:36 GMT 33.432190 -112.024567 0 274 17
2022-08-15 12:29:35 GMT 33.432190 -112.024483 0 276 18
2022-08-15 12:29:34 GMT 33.432152 -112.024269 0 263 16
2022-08-15 12:29:32 GMT 33.432159 -112.024178 0 265 16
2022-08-15 12:29:31 GMT 33.432178 -112.024094 0 268 15
2022-08-15 12:29:29 GMT 33.432190 -112.023933 0 272 19
2022-08-15 12:29:28 GMT 33.432190 -112.023720 0 273 19
2022-08-15 12:29:26 GMT 33.432178 -112.023613 0 271 17
2022-08-15 12:29:25 GMT 33.432178 -112.023422 0 269 18
2022-08-15 12:29:23 GMT 33.432171 -112.023338 0 267 20
2022-08-15 12:29:22 GMT 33.432178 -112.023109 0 270 21
2022-08-15 12:29:20 GMT 33.432190 -112.022980 0 272 18
2022-08-15 12:29:19 GMT 33.432178 -112.022789 0 267 19
2022-08-15 12:29:17 GMT 33.432201 -112.022659 0 276 16
2022-08-15 12:29:15 GMT 33.432178 -112.022499 0 272 22
2022-08-15 12:29:14 GMT 33.432178 -112.022369 0 274 20
2022-08-15 12:29:13 GMT 33.432159 -112.022163 0 273 21
2022-08-15 12:29:11 GMT 33.432140 -112.022049 0 267 22
2022-08-15 12:29:09 GMT 33.432140 -112.021820 0 263 22
2022-08-15 12:29:08 GMT 33.432152 -112.021713 0 264 22
2022-08-15 12:29:06 GMT 33.432178 -112.021477 0 271 19
2022-08-15 12:29:05 GMT 33.432190 -112.021378 0 277 21
2022-08-15 12:29:04 GMT 33.432171 -112.021263 0 273 20
2022-08-15 12:29:02 GMT 33.432152 -112.021049 0 268 22
2022-08-15 12:29:00 GMT 33.432152 -112.020798 0 266 21
2022-08-15 12:28:59 GMT 33.432171 -112.020607 0 269 24
2022-08-15 12:28:57 GMT 33.432171 -112.020462 0 271 23
2022-08-15 12:28:55 GMT 33.432190 -112.020203 0 276 22
2022-08-15 12:28:54 GMT 33.432152 -112.019943 0 268 22
2022-08-15 12:28:52 GMT 33.432159 -112.019836 0 268 26
2022-08-15 12:28:50 GMT 33.432152 -112.019562 0 267 24
2022-08-15 12:28:49 GMT 33.432171 -112.019432 0 272 25
2022-08-15 12:28:47 GMT 33.432171 -112.019173 0 272 28
2022-08-15 12:28:46 GMT 33.432152 -112.018852 0 268 24
2022-08-15 12:28:44 GMT 33.432152 -112.018723 0 268 24
2022-08-15 12:28:42 GMT 33.432152 -112.018463 0 266 26
2022-08-15 12:28:41 GMT 33.432152 -112.018318 0 266 27
2022-08-15 12:28:39 GMT 33.432171 -112.018013 0 270 25
2022-08-15 12:28:38 GMT 33.432190 -112.017891 0 273 28
2022-08-15 12:28:36 GMT 33.432178 -112.017601 0 270 28
2022-08-15 12:28:34 GMT 33.432171 -112.017281 0 270 27
2022-08-15 12:28:33 GMT 33.432178 -112.017120 0 272 27
2022-08-15 12:28:32 GMT 33.432171 -112.016968 0 272 26
2022-08-15 12:28:30 GMT 33.432171 -112.016693 0 272 27
2022-08-15 12:28:29 GMT 33.432152 -112.016548 0 268 29
2022-08-15 12:28:27 GMT 33.432152 -112.016228 0 266 27
2022-08-15 12:28:26 GMT 33.432171 -112.015907 0 270 30
2022-08-15 12:28:24 GMT 33.432171 -112.015739 0 270 29
2022-08-15 12:28:22 GMT 33.432178 -112.015419 0 271 29
2022-08-15 12:28:21 GMT 33.432159 -112.015099 0 268 29
2022-08-15 12:28:19 GMT 33.432171 -112.014931 0 269 28
2022-08-15 12:28:18 GMT 33.432171 -112.014778 0 270 29
2022-08-15 12:28:16 GMT 33.432178 -112.014458 0 272 29
2022-08-15 12:28:15 GMT 33.432178 -112.014290 0 274 28
2022-08-15 12:28:13 GMT 33.432140 -112.013992 0 267 27
2022-08-15 12:28:12 GMT 33.432140 -112.013680 0 266 27
2022-08-15 12:28:10 GMT 33.432140 -112.013527 0 263 27
2022-08-15 12:28:09 GMT 33.432178 -112.013382 0 270 27
2022-08-15 12:28:06 GMT 33.432171 -112.012939 0 270 29
2022-08-15 12:28:05 GMT 33.432178 -112.012787 0 273 30
2022-08-15 12:28:04 GMT 33.432159 -112.012428 0 271 26
2022-08-15 12:28:02 GMT 33.432159 -112.012283 0 271 25
2022-08-15 12:28:00 GMT 33.432152 -112.012016 0 270 27
2022-08-15 12:27:59 GMT 33.432140 -112.011871 0 268 26
2022-08-15 12:27:57 GMT 33.432152 -112.011581 0 268 26
2022-08-15 12:27:56 GMT 33.432159 -112.011292 0 272 25
2022-08-15 12:27:54 GMT 33.432140 -112.011162 0 269 26
2022-08-15 12:27:53 GMT 33.432129 -112.011009 0 265 25
2022-08-15 12:27:51 GMT 33.432171 -112.010742 0 274 24
2022-08-15 12:27:50 GMT 33.432152 -112.010597 0 271 23
2022-08-15 12:27:49 GMT 33.432152 -112.010483 0 271 25
2022-08-15 12:27:47 GMT 33.432129 -112.010201 0 267 24
2022-08-15 12:27:46 GMT 33.432129 -112.010063 0 265 23
2022-08-15 12:27:44 GMT 33.432159 -112.009804 0 268 23
2022-08-15 12:27:43 GMT 33.432159 -112.009682 0 268 24
2022-08-15 12:27:41 GMT 33.432159 -112.009422 0 271 24
2022-08-15 12:27:40 GMT 33.432171 -112.009293 0 272 23
2022-08-15 12:27:38 GMT 33.432159 -112.009041 0 269 23
2022-08-15 12:27:37 GMT 33.432178 -112.008789 0 274 23
2022-08-15 12:27:35 GMT 33.432159 -112.008659 0 270 23
2022-08-15 12:27:33 GMT 33.432140 -112.008400 0 265 20
2022-08-15 12:27:32 GMT 33.432171 -112.008179 0 273 22
2022-08-15 12:27:30 GMT 33.432159 -112.008049 0 271 21
2022-08-15 12:27:27 GMT 33.432140 -112.007721 0 266 21
2022-08-15 12:27:25 GMT 33.432159 -112.007477 0 270 19
2022-08-15 12:27:24 GMT 33.432152 -112.007370 0 264 19
2022-08-15 12:27:23 GMT 33.432159 -112.007149 0 267 20
2022-08-15 12:27:20 GMT 33.432159 -112.006943 0 269 19
2022-08-15 12:27:19 GMT 33.432159 -112.006828 0 269 19
2022-08-15 12:27:18 GMT 33.432152 -112.006721 0 266 18
2022-08-15 12:27:16 GMT 33.432201 -112.006493 0 282 17
2022-08-15 12:27:15 GMT 33.432171 -112.006409 0 276 18
2022-08-15 12:27:14 GMT 33.432152 -112.006210 0 273 20
2022-08-15 12:27:12 GMT 33.432129 -112.006088 0 268 18
2022-08-15 12:27:10 GMT 33.432159 -112.005913 0 274 18
2022-08-15 12:27:09 GMT 33.432152 -112.005814 0 271 19
2022-08-15 12:27:08 GMT 33.432140 -112.005608 0 271 19
2022-08-15 12:27:06 GMT 33.432110 -112.005493 0 260 17
2022-08-15 12:27:05 GMT 33.432110 -112.005402 0 257 17
2022-08-15 12:27:04 GMT 33.432159 -112.005211 0 272 16
2022-08-15 12:27:02 GMT 33.432159 -112.005142 0 270 18
2022-08-15 12:27:00 GMT 33.432152 -112.004936 0 272 16
2022-08-15 12:26:59 GMT 33.432159 -112.004868 0 277 18
2022-08-15 12:26:57 GMT 33.432152 -112.004677 0 273 16
2022-08-15 12:26:56 GMT 33.432140 -112.004509 0 266 16
2022-08-15 12:26:54 GMT 33.432140 -112.004433 0 258 16
2022-08-15 12:26:53 GMT 33.432129 -112.004318 0 243 14
2022-08-15 12:26:51 GMT 33.432171 -112.004189 0 235 16
2022-08-15 12:26:50 GMT 33.432178 -112.004097 0 220 17
2022-08-15 12:26:48 GMT 33.432289 -112.003967 0 211 15
2022-08-15 12:26:47 GMT 33.432400 -112.003868 0 207 16
2022-08-15 12:26:45 GMT 33.432461 -112.003822 0 207 15
2022-08-15 12:26:43 GMT 33.432590 -112.003761 0 222 15
2022-08-15 12:26:42 GMT 33.432640 -112.003700 0 228 14
2022-08-15 12:26:39 GMT 33.432789 -112.003540 0 255 15
2022-08-15 12:26:37 GMT 33.432838 -112.003372 0 268 15
2022-08-15 12:26:34 GMT 33.432861 -112.003128 0 275 15
2022-08-15 12:26:33 GMT 33.432850 -112.002968 0 275 14
2022-08-15 12:26:31 GMT 33.432861 -112.002907 0 275 17
2022-08-15 12:26:30 GMT 33.432831 -112.002724 0 268 15
2022-08-15 12:26:28 GMT 33.432838 -112.002632 0 270 15
2022-08-15 12:26:26 GMT 33.432850 -112.002449 0 277 14
2022-08-15 12:26:25 GMT 33.432812 -112.002281 0 267 13
2022-08-15 12:26:23 GMT 33.432812 -112.002213 0 265 12
2022-08-15 12:26:22 GMT 33.432800 -112.002083 0 257 15
2022-08-15 12:26:20 GMT 33.432850 -112.002007 0 274 15
2022-08-15 12:26:19 GMT 33.432838 -112.001930 0 274 16
2022-08-15 12:26:18 GMT 33.432850 -112.001823 0 275 12
2022-08-15 12:26:16 GMT 33.432819 -112.001678 0 266 12
2022-08-15 12:26:15 GMT 33.432838 -112.001556 0 275 12
2022-08-15 12:26:13 GMT 33.432838 -112.001480 0 271 11
2022-08-15 12:26:12 GMT 33.432831 -112.001411 0 270 12
2022-08-15 12:26:10 GMT 33.432800 -112.001282 0 239 9
2022-08-15 12:26:09 GMT 33.432781 -112.001167 0 222 16
2022-08-15 12:26:07 GMT 33.432869 -112.001091 0 219 11

Making use of Plane Finder data

You are free to use the raw flight data, aircraft information and images provided in this report for your own purposes provided the data is correctly attributed to Plane Finder. We ask that you please credit Plane Finder and link to planefinder.net in close proximity to the content.

Optionally one of the following logos (no smaller then 150x24px) can be used and must link to planefinder.net

Embedding the Plane Finder map

You are welcome to embed the Plane Finder playback map on your website to offer visitors a more interactive experience. We suggest using the following HTML code:

<iframe src="//planefinder.net/data/report/WN1234-N8747Q-7700-squawk-2022-08-15/map" width="800" height="600" seamless="seamless"></iframe>

Where our data comes from

Plane Finder has a global network of data feeds and antenna radars that receive data broadcast directly from aircraft. The primary technologies used are ADS-B and MLAT. We also show feeds from the FAA and a FLARM glider feed.

Click here to find out more about the Plane Finder network.

How we collect our data